createdAt,value
2022-07-27T00:01:08.067Z,17.59
2022-07-27T00:03:36.206Z,17.63
2022-07-27T00:06:04.194Z,17.64
2022-07-27T00:08:32.402Z,17.67
2022-07-27T00:11:00.587Z,17.65
2022-07-27T00:13:30.440Z,17.63
2022-07-27T00:15:58.222Z,17.69
2022-07-27T00:18:26.386Z,17.63
2022-07-27T00:20:54.006Z,17.63
2022-07-27T00:23:21.821Z,17.69
2022-07-27T00:25:49.470Z,17.74
2022-07-27T00:28:17.618Z,17.75
2022-07-27T00:30:46.591Z,17.78
2022-07-27T00:33:16.897Z,17.84
2022-07-27T00:35:45.560Z,17.78
2022-07-27T00:38:13.627Z,17.66
2022-07-27T00:40:41.294Z,17.71
2022-07-27T00:43:09.272Z,17.72
2022-07-27T00:45:36.907Z,17.75
2022-07-27T00:48:06.973Z,17.73
2022-07-27T00:50:34.767Z,17.71
2022-07-27T00:53:04.824Z,17.72
2022-07-27T00:55:33.287Z,17.66
2022-07-27T00:58:01.775Z,17.61
2022-07-27T01:00:30.399Z,17.56
2022-07-27T01:02:58.192Z,17.48
2022-07-27T01:05:30.243Z,17.51
2022-07-27T01:08:05.069Z,17.45
2022-07-27T01:10:33.330Z,17.45
2022-07-27T01:13:01.166Z,17.45
2022-07-27T01:15:29.206Z,17.54
2022-07-27T01:17:56.843Z,17.58
2022-07-27T01:20:24.993Z,17.63
2022-07-27T01:22:53.956Z,17.69
2022-07-27T01:25:22.348Z,17.76
2022-07-27T01:27:49.990Z,17.87
2022-07-27T01:30:31.481Z,17.91
2022-07-27T01:33:03.187Z,17.99
2022-07-27T01:35:31.060Z,17.98
2022-07-27T01:38:01.553Z,18.00
2022-07-27T01:40:29.641Z,18.08
2022-07-27T01:42:57.541Z,17.98
2022-07-27T01:45:25.964Z,17.93
2022-07-27T01:47:53.591Z,17.95
2022-07-27T01:50:22.085Z,18.04
2022-07-27T01:52:49.756Z,18.07
2022-07-27T01:55:19.106Z,17.96
2022-07-27T01:57:46.761Z,17.91
2022-07-27T02:00:15.814Z,17.88
2022-07-27T02:02:43.895Z,17.89
2022-07-27T02:05:12.924Z,17.82
2022-07-27T02:07:41.295Z,17.79
2022-07-27T02:10:11.019Z,17.77
2022-07-27T02:12:39.707Z,17.69
2022-07-27T02:15:15.192Z,17.74
2022-07-27T02:17:44.946Z,17.69
2022-07-27T02:20:15.220Z,17.72
2022-07-27T02:22:43.313Z,17.63
2022-07-27T02:25:12.919Z,17.68
2022-07-27T02:27:43.284Z,17.76
2022-07-27T02:30:13.184Z,17.83
2022-07-27T02:32:44.285Z,17.88
2022-07-27T02:35:19.365Z,17.79
2022-07-27T02:37:47.881Z,17.89
2022-07-27T02:40:18.171Z,17.79
2022-07-27T02:42:48.173Z,17.75
2022-07-27T02:45:17.375Z,17.78
2022-07-27T02:47:45.803Z,17.68
2022-07-27T02:50:14.507Z,17.77
2022-07-27T02:52:42.181Z,17.87
2022-07-27T02:55:11.202Z,17.97
2022-07-27T02:57:41.111Z,18.01
2022-07-27T03:00:13.925Z,18.04
2022-07-27T03:02:41.961Z,18.08
2022-07-27T03:05:12.053Z,18.12
2022-07-27T03:07:39.798Z,18.15
2022-07-27T03:10:08.667Z,18.15
2022-07-27T03:12:36.332Z,18.16
2022-07-27T03:15:04.259Z,18.16
2022-07-27T03:17:33.843Z,18.17
2022-07-27T03:20:02.303Z,18.22
2022-07-27T03:22:32.480Z,18.26
2022-07-27T03:25:01.676Z,18.29
2022-07-27T03:27:29.720Z,18.32
2022-07-27T03:29:57.616Z,18.35
2022-07-27T03:32:25.994Z,18.40
2022-07-27T03:34:55.021Z,18.44
2022-07-27T03:37:23.149Z,18.36
2022-07-27T03:39:50.839Z,18.40
2022-07-27T03:42:18.971Z,18.33
2022-07-27T03:44:46.605Z,18.31
2022-07-27T03:47:14.300Z,18.29
2022-07-27T03:49:42.235Z,18.26
2022-07-27T03:52:15.800Z,18.23
2022-07-27T03:54:45.418Z,18.17
2022-07-27T03:57:13.439Z,18.15
2022-07-27T03:59:41.116Z,18.20
2022-07-27T04:02:09.281Z,18.19
2022-07-27T04:04:36.946Z,18.17
2022-07-27T04:07:04.961Z,18.11
2022-07-27T04:09:34.353Z,18.09
2022-07-27T04:12:02.339Z,18.13
2022-07-27T04:14:30.385Z,18.15
2022-07-27T04:16:58.815Z,18.18
2022-07-27T04:19:26.478Z,18.20
2022-07-27T04:21:54.592Z,18.14
2022-07-27T04:24:22.260Z,18.19
2022-07-27T04:26:52.322Z,18.25
2022-07-27T04:29:21.059Z,18.16
2022-07-27T04:31:49.459Z,18.11
2022-07-27T04:34:17.143Z,18.12
2022-07-27T04:36:45.144Z,18.13
2022-07-27T04:39:13.159Z,18.14
2022-07-27T04:41:41.458Z,18.13
2022-07-27T04:44:10.447Z,18.02
2022-07-27T04:46:38.546Z,18.00
2022-07-27T04:49:06.346Z,17.96
2022-07-27T04:51:35.358Z,18.07
2022-07-27T04:54:03.137Z,18.14
2022-07-27T04:56:31.072Z,18.27
2022-07-27T04:58:58.814Z,18.30
2022-07-27T05:01:34.692Z,18.30
2022-07-27T05:04:04.041Z,18.43
2022-07-27T05:06:33.013Z,18.56
2022-07-27T05:09:00.934Z,18.67
2022-07-27T05:11:28.659Z,18.76
2022-07-27T05:13:56.292Z,18.85
2022-07-27T05:16:28.486Z,18.86
2022-07-27T05:18:58.330Z,18.85
2022-07-27T05:21:27.488Z,18.92
2022-07-27T05:23:55.599Z,18.99
2022-07-27T05:26:23.742Z,18.99
2022-07-27T05:28:51.387Z,19.15
2022-07-27T05:31:19.628Z,19.30
2022-07-27T05:33:49.795Z,19.39
2022-07-27T05:36:20.851Z,19.47
2022-07-27T05:38:48.485Z,19.48
2022-07-27T05:41:16.654Z,19.51
2022-07-27T05:43:44.627Z,19.59
2022-07-27T05:46:12.446Z,19.80
2022-07-27T05:48:40.346Z,19.90
2022-07-27T05:51:08.383Z,20.02
2022-07-27T05:53:37.447Z,20.04
2022-07-27T05:56:05.525Z,20.15
2022-07-27T05:58:33.167Z,20.30
2022-07-27T06:01:01.377Z,20.59
2022-07-27T06:03:29.898Z,20.77
2022-07-27T06:06:11.587Z,21.06
2022-07-27T06:08:40.730Z,21.33
2022-07-27T06:11:08.373Z,21.38
2022-07-27T06:13:37.437Z,21.43
2022-07-27T06:16:10.122Z,21.35
2022-07-27T06:18:38.115Z,21.37
2022-07-27T06:21:06.361Z,21.42
2022-07-27T06:23:34.114Z,21.42
2022-07-27T06:26:03.080Z,21.55
2022-07-27T06:28:30.715Z,21.68
2022-07-27T06:30:58.391Z,21.84
2022-07-27T06:33:29.511Z,21.93
2022-07-27T06:35:58.382Z,21.97
2022-07-27T06:38:26.991Z,22.12
2022-07-27T06:40:55.234Z,22.25
2022-07-27T06:43:26.736Z,22.36
2022-07-27T06:45:55.315Z,22.42
2022-07-27T06:48:23.455Z,22.48
2022-07-27T06:50:52.158Z,22.61
2022-07-27T06:53:21.542Z,22.76
2022-07-27T06:55:49.521Z,22.80
2022-07-27T06:58:18.060Z,22.91
2022-07-27T07:00:47.471Z,23.01
2022-07-27T07:03:15.258Z,23.15
2022-07-27T07:05:45.392Z,23.34
2022-07-27T07:08:14.960Z,23.47
2022-07-27T07:10:46.357Z,23.51
2022-07-27T07:13:14.901Z,23.59
2022-07-27T07:15:44.007Z,23.73
2022-07-27T07:18:13.698Z,23.84
2022-07-27T07:20:41.941Z,23.89
2022-07-27T07:23:11.598Z,23.93
2022-07-27T07:25:40.756Z,24.12
2022-07-27T07:28:09.511Z,24.43
2022-07-27T07:30:37.450Z,24.63
2022-07-27T07:33:05.911Z,25.01
2022-07-27T07:35:35.027Z,25.35
2022-07-27T07:38:03.287Z,25.57
2022-07-27T07:40:46.483Z,25.58
2022-07-27T07:43:15.513Z,25.52
2022-07-27T07:45:49.477Z,25.53
2022-07-27T07:48:21.015Z,25.61
2022-07-27T07:50:52.024Z,25.68
2022-07-27T07:53:21.847Z,25.88
2022-07-27T07:55:49.661Z,26.01
2022-07-27T07:58:18.071Z,26.35
2022-07-27T08:00:46.516Z,26.35
2022-07-27T08:03:14.333Z,26.32
2022-07-27T08:05:42.305Z,26.41
2022-07-27T08:08:11.652Z,26.50
2022-07-27T08:10:39.699Z,26.49
2022-07-27T08:13:07.425Z,26.69
2022-07-27T08:15:36.625Z,26.90
2022-07-27T08:18:05.490Z,27.17
2022-07-27T08:20:33.933Z,27.26
2022-07-27T08:23:01.774Z,27.66
2022-07-27T08:25:31.488Z,27.94
2022-07-27T08:27:59.275Z,28.22
2022-07-27T08:30:28.515Z,28.51
2022-07-27T08:33:00.991Z,28.60
2022-07-27T08:35:30.790Z,28.57
2022-07-27T08:37:59.476Z,28.72
2022-07-27T08:40:45.343Z,28.86
2022-07-27T08:43:24.497Z,29.13
2022-07-27T08:45:56.183Z,29.36
2022-07-27T08:48:25.159Z,29.05
2022-07-27T08:50:53.017Z,28.87
2022-07-27T08:53:20.779Z,28.84
2022-07-27T08:55:49.209Z,28.90
2022-07-27T08:58:18.431Z,28.99
2022-07-27T09:00:50.374Z,29.23
2022-07-27T09:03:21.465Z,29.14
2022-07-27T09:05:50.996Z,29.06
2022-07-27T09:08:22.410Z,29.29
2022-07-27T09:10:52.163Z,28.87
2022-07-27T09:13:24.542Z,28.56
2022-07-27T09:18:42.860Z,29.02
2022-07-27T09:21:16.902Z,29.19
2022-07-27T09:23:48.174Z,29.38
2022-07-27T09:26:31.097Z,29.16
2022-07-27T09:29:03.331Z,29.12
2022-07-27T09:31:32.257Z,29.16
2022-07-27T09:34:02.811Z,29.33
2022-07-27T09:36:31.956Z,29.32
2022-07-27T09:39:03.824Z,29.15
2022-07-27T09:41:43.459Z,28.97
2022-07-27T09:47:02.070Z,28.77
2022-07-27T09:49:31.891Z,28.79
2022-07-27T09:52:02.486Z,28.93
2022-07-27T09:54:44.135Z,29.13
2022-07-27T09:57:12.100Z,29.43
2022-07-27T09:59:41.232Z,29.13
2022-07-27T10:02:09.075Z,29.30
2022-07-27T10:04:36.928Z,29.45
2022-07-27T10:07:08.353Z,29.59
2022-07-27T10:09:40.639Z,29.20
2022-07-27T10:12:09.608Z,29.45
2022-07-27T10:14:37.331Z,29.51
2022-07-27T10:17:07.583Z,29.74
2022-07-27T10:19:42.348Z,30.00
2022-07-27T10:22:10.278Z,30.15
2022-07-27T10:24:37.918Z,30.05
2022-07-27T10:27:22.934Z,29.79
2022-07-27T10:29:51.801Z,29.63
2022-07-27T10:32:31.490Z,29.35
2022-07-27T10:34:59.818Z,29.32
2022-07-27T10:37:29.057Z,29.29
2022-07-27T10:40:12.571Z,29.58
2022-07-27T10:42:41.153Z,29.69
2022-07-27T10:45:11.045Z,29.71
2022-07-27T10:47:45.128Z,29.76
2022-07-27T10:50:33.757Z,29.82
2022-07-27T10:53:04.797Z,30.06
2022-07-27T10:55:51.540Z,30.11
2022-07-27T10:58:45.551Z,29.68
2022-07-27T11:01:15.517Z,29.79
2022-07-27T11:03:53.582Z,29.79
2022-07-27T11:06:55.782Z,29.62
2022-07-27T11:12:05.575Z,29.68
2022-07-27T11:14:44.769Z,29.70
2022-07-27T11:20:04.576Z,29.54
2022-07-27T11:23:08.834Z,29.39
2022-07-27T11:25:21.734Z,29.93
2022-07-27T11:27:50.497Z,30.19
2022-07-27T11:30:25.652Z,30.06
2022-07-27T11:32:53.581Z,29.90
2022-07-27T11:35:22.863Z,29.82
2022-07-27T11:38:05.142Z,29.63
2022-07-27T11:43:34.643Z,29.45
2022-07-27T11:46:20.453Z,29.49
2022-07-27T11:49:06.140Z,29.55
2022-07-27T11:51:38.136Z,29.71
2022-07-27T11:54:08.628Z,29.85
2022-07-27T11:56:39.525Z,29.87
2022-07-27T11:59:13.523Z,29.86
2022-07-27T12:01:44.421Z,29.95
2022-07-27T12:04:16.078Z,30.24
2022-07-27T12:06:47.566Z,30.44
2022-07-27T12:09:18.161Z,30.36
2022-07-27T12:11:50.105Z,30.23
2022-07-27T12:14:19.178Z,29.91
2022-07-27T12:16:47.008Z,29.86
2022-07-27T12:19:23.219Z,29.52
2022-07-27T12:21:55.495Z,29.68
2022-07-27T12:24:33.900Z,29.72
2022-07-27T12:27:06.563Z,29.69
2022-07-27T12:29:35.071Z,29.96
2022-07-27T12:32:05.076Z,29.89
2022-07-27T12:34:34.102Z,29.93
2022-07-27T12:37:12.338Z,30.09
2022-07-27T12:39:43.045Z,30.19
2022-07-27T12:42:11.789Z,30.11
2022-07-27T12:44:42.367Z,30.05
2022-07-27T12:47:28.312Z,30.00
2022-07-27T12:50:08.279Z,30.10
2022-07-27T12:52:41.899Z,29.83
2022-07-27T12:55:15.155Z,29.83
2022-07-27T12:57:58.999Z,29.90
2022-07-27T13:00:33.730Z,29.91
2022-07-27T13:03:04.181Z,29.84
2022-07-27T13:05:32.848Z,29.61
2022-07-27T13:08:03.277Z,29.56
2022-07-27T13:10:31.404Z,29.50
2022-07-27T13:12:59.487Z,29.51
2022-07-27T13:15:27.343Z,29.64
2022-07-27T13:17:55.026Z,29.75
2022-07-27T13:20:22.781Z,29.93
2022-07-27T13:22:50.811Z,30.05
2022-07-27T13:25:20.386Z,30.08
2022-07-27T13:27:49.978Z,30.21
2022-07-27T13:30:19.346Z,30.38
2022-07-27T13:32:48.309Z,30.43
2022-07-27T13:35:17.454Z,30.43
2022-07-27T13:37:45.898Z,30.19
2022-07-27T13:40:14.596Z,30.13
2022-07-27T13:42:44.015Z,30.07
2022-07-27T13:45:12.487Z,29.96
2022-07-27T13:47:41.548Z,29.93
2022-07-27T13:50:17.893Z,29.77
2022-07-27T13:52:47.922Z,29.59
2022-07-27T13:55:16.149Z,29.38
2022-07-27T13:57:47.058Z,29.32
2022-07-27T14:00:16.051Z,29.10
2022-07-27T14:02:44.173Z,29.00
2022-07-27T14:05:14.184Z,28.84
2022-07-27T14:07:42.574Z,28.84
2022-07-27T14:10:30.321Z,28.85
2022-07-27T14:13:08.044Z,28.87
2022-07-27T14:15:55.664Z,28.87
2022-07-27T14:18:26.336Z,29.02
2022-07-27T14:20:54.368Z,29.10
2022-07-27T14:23:22.447Z,29.16
2022-07-27T14:25:50.303Z,29.09
2022-07-27T14:28:19.850Z,29.11
2022-07-27T14:30:48.630Z,28.99
2022-07-27T14:33:17.486Z,28.89
2022-07-27T14:35:45.937Z,28.84
2022-07-27T14:38:14.089Z,28.84
2022-07-27T14:40:54.338Z,28.86
2022-07-27T14:43:23.957Z,28.88
2022-07-27T14:45:52.268Z,28.83
2022-07-27T14:48:32.439Z,28.72
2022-07-27T14:51:09.697Z,28.72
2022-07-27T14:53:37.456Z,28.68
2022-07-27T14:56:05.593Z,28.71
2022-07-27T14:58:34.570Z,28.78
2022-07-27T15:01:02.379Z,28.58
2022-07-27T15:03:30.016Z,28.54
2022-07-27T15:05:58.596Z,28.47
2022-07-27T15:08:26.261Z,28.46
2022-07-27T15:10:54.185Z,28.47
2022-07-27T15:13:21.827Z,28.60
2022-07-27T15:15:52.749Z,28.79
2022-07-27T15:18:21.010Z,28.81
2022-07-27T15:20:49.705Z,28.83
2022-07-27T15:23:17.975Z,28.93
2022-07-27T15:25:45.910Z,28.91
2022-07-27T15:28:15.442Z,28.80
2022-07-27T15:30:43.452Z,28.89
2022-07-27T15:33:12.778Z,28.95
2022-07-27T15:35:40.446Z,28.93
2022-07-27T15:38:08.073Z,28.88
2022-07-27T15:40:39.186Z,28.94
2022-07-27T15:43:08.375Z,29.02
2022-07-27T15:45:39.000Z,28.94
2022-07-27T15:48:08.327Z,29.05
2022-07-27T15:50:38.273Z,29.29
2022-07-27T15:53:07.138Z,29.36
2022-07-27T15:55:37.884Z,29.30
2022-07-27T15:58:06.100Z,29.21
2022-07-27T16:00:39.529Z,29.00
2022-07-27T16:03:08.525Z,28.79
2022-07-27T16:05:37.938Z,28.64
2022-07-27T16:08:07.535Z,28.79
2022-07-27T16:10:35.185Z,28.96
2022-07-27T16:13:03.003Z,29.05
2022-07-27T16:15:45.058Z,29.13
2022-07-27T16:18:12.861Z,29.13
2022-07-27T16:20:42.197Z,29.11
2022-07-27T16:23:19.133Z,29.03
2022-07-27T16:26:08.156Z,28.78
2022-07-27T16:28:39.662Z,28.51
2022-07-27T16:31:08.289Z,28.27
2022-07-27T16:33:36.080Z,28.08
2022-07-27T16:36:08.401Z,27.85
2022-07-27T16:38:36.995Z,27.76
2022-07-27T16:41:07.499Z,27.71
2022-07-27T16:43:38.117Z,27.59
2022-07-27T16:46:07.537Z,27.49
2022-07-27T16:48:42.655Z,27.52
2022-07-27T16:51:14.091Z,27.65
2022-07-27T16:53:43.478Z,27.60
2022-07-27T16:56:12.393Z,27.60
2022-07-27T16:58:40.336Z,27.63
2022-07-27T17:01:08.549Z,27.62
2022-07-27T17:03:36.433Z,27.65
2022-07-27T17:06:06.454Z,27.68
2022-07-27T17:08:36.606Z,27.66
2022-07-27T17:11:05.461Z,27.62
2022-07-27T17:13:34.837Z,27.50
2022-07-27T17:16:02.910Z,27.42
2022-07-27T17:18:34.215Z,27.29
2022-07-27T17:21:07.119Z,27.23
2022-07-27T17:23:38.247Z,27.09
2022-07-27T17:26:07.379Z,27.02
2022-07-27T17:28:38.745Z,26.90
2022-07-27T17:31:07.799Z,26.75
2022-07-27T17:33:35.469Z,26.65
2022-07-27T17:36:03.361Z,26.58
2022-07-27T17:38:31.115Z,26.49
2022-07-27T17:41:00.347Z,26.45
2022-07-27T17:43:28.293Z,26.41
2022-07-27T17:45:55.930Z,26.34
2022-07-27T17:48:24.257Z,26.29
2022-07-27T17:50:51.918Z,26.20
2022-07-27T17:53:19.542Z,26.11
2022-07-27T17:55:47.160Z,26.04
2022-07-27T17:58:17.064Z,25.97
2022-07-27T18:00:44.710Z,25.88
2022-07-27T18:03:13.138Z,25.77
2022-07-27T18:05:41.047Z,25.71
2022-07-27T18:08:10.274Z,25.59
2022-07-27T18:10:38.858Z,25.52
2022-07-27T18:13:07.323Z,25.46
2022-07-27T18:15:49.035Z,25.37
2022-07-27T18:18:18.769Z,25.31
2022-07-27T18:20:48.210Z,25.20
2022-07-27T18:23:16.376Z,25.18
2022-07-27T18:25:45.389Z,25.12
2022-07-27T18:28:14.307Z,25.07
2022-07-27T18:30:43.549Z,25.01
2022-07-27T18:33:11.552Z,24.97
2022-07-27T18:35:39.513Z,24.88
2022-07-27T18:38:09.101Z,24.80
2022-07-27T18:40:37.352Z,24.66
2022-07-27T18:43:05.791Z,24.56
2022-07-27T18:45:34.174Z,24.44
2022-07-27T18:48:05.068Z,24.33
2022-07-27T18:50:38.706Z,24.24
2022-07-27T18:53:07.115Z,24.15
2022-07-27T18:55:34.828Z,24.09
2022-07-27T18:58:02.911Z,23.98
2022-07-27T19:00:31.068Z,23.84
2022-07-27T19:02:59.112Z,23.75
2022-07-27T19:05:40.531Z,23.60
2022-07-27T19:08:11.488Z,23.45
2022-07-27T19:10:41.484Z,23.36
2022-07-27T19:13:10.347Z,23.23
2022-07-27T19:15:38.224Z,23.12
2022-07-27T19:18:06.283Z,22.99
2022-07-27T19:20:36.319Z,22.90
2022-07-27T19:23:04.111Z,22.81
2022-07-27T19:25:33.594Z,22.75
2022-07-27T19:28:02.227Z,22.65
2022-07-27T19:30:30.065Z,22.54
2022-07-27T19:32:58.803Z,22.47
2022-07-27T19:35:26.767Z,22.40
2022-07-27T19:37:56.233Z,22.32
2022-07-27T19:43:11.944Z,22.19
2022-07-27T19:45:39.604Z,22.16
2022-07-27T19:48:08.592Z,22.13
2022-07-27T19:50:36.336Z,22.08
2022-07-27T19:53:06.154Z,22.06
2022-07-27T19:55:34.040Z,22.03
2022-07-27T19:58:02.082Z,21.97
2022-07-27T20:00:30.745Z,21.95
2022-07-27T20:02:59.085Z,21.94
2022-07-27T20:05:26.767Z,21.94
2022-07-27T20:07:54.371Z,21.90
2022-07-27T20:10:25.174Z,21.85
2022-07-27T20:12:53.508Z,21.85
2022-07-27T20:15:22.588Z,21.85
2022-07-27T20:17:50.619Z,21.83
2022-07-27T20:20:18.280Z,21.80
2022-07-27T20:22:46.010Z,21.75
2022-07-27T20:25:15.102Z,21.68
2022-07-27T20:27:44.159Z,21.66
2022-07-27T20:30:16.149Z,21.60
2022-07-27T20:32:43.813Z,21.54
2022-07-27T20:35:11.793Z,21.52
2022-07-27T20:37:39.451Z,21.46
2022-07-27T20:40:11.309Z,21.42
2022-07-27T20:42:40.243Z,21.37
2022-07-27T20:45:13.759Z,21.32
2022-07-27T20:47:41.867Z,21.29
2022-07-27T20:50:13.112Z,21.23
2022-07-27T20:52:41.998Z,21.15
2022-07-27T20:55:11.174Z,21.09
2022-07-27T20:57:39.017Z,21.06
2022-07-27T21:00:08.417Z,21.01
2022-07-27T21:02:37.821Z,20.94
2022-07-27T21:05:06.589Z,20.89
2022-07-27T21:07:34.282Z,20.83
2022-07-27T21:10:01.933Z,20.78
2022-07-27T21:12:29.569Z,20.73
2022-07-27T21:14:57.228Z,20.68
2022-07-27T21:17:24.899Z,20.66
2022-07-27T21:19:54.663Z,20.63
2022-07-27T21:22:22.282Z,20.63
2022-07-27T21:24:50.424Z,20.60
2022-07-27T21:27:21.061Z,20.63
2022-07-27T21:29:49.428Z,20.57
2022-07-27T21:32:17.248Z,20.51
2022-07-27T21:34:44.924Z,20.47
2022-07-27T21:37:13.959Z,20.44
2022-07-27T21:39:41.899Z,20.38
2022-07-27T21:42:09.530Z,20.32
2022-07-27T21:44:37.428Z,20.25
2022-07-27T21:47:11.451Z,20.24
2022-07-27T21:49:42.191Z,20.17
2022-07-27T21:52:11.044Z,20.15
2022-07-27T21:54:40.490Z,20.14
2022-07-27T21:57:08.248Z,20.03
2022-07-27T21:59:35.904Z,19.99
2022-07-27T22:02:03.530Z,19.91
2022-07-27T22:04:31.782Z,19.86
2022-07-27T22:06:59.478Z,19.81
2022-07-27T22:09:27.141Z,19.77
2022-07-27T22:11:56.776Z,19.74
2022-07-27T22:14:24.468Z,19.69
2022-07-27T22:16:53.694Z,19.64
2022-07-27T22:19:21.422Z,19.58
2022-07-27T22:21:49.500Z,19.56
2022-07-27T22:24:17.657Z,19.50
2022-07-27T22:26:46.205Z,19.49
2022-07-27T22:29:15.853Z,19.44
2022-07-27T22:31:43.997Z,19.43
2022-07-27T22:34:11.952Z,19.37
2022-07-27T22:36:40.199Z,19.28
2022-07-27T22:39:07.880Z,19.23
2022-07-27T22:41:35.536Z,19.13
2022-07-27T22:44:03.209Z,19.02
2022-07-27T22:46:32.577Z,18.94
2022-07-27T22:49:00.259Z,18.93
2022-07-27T22:51:49.800Z,18.90
2022-07-27T22:54:16.987Z,18.86
2022-07-27T22:56:45.758Z,18.82
2022-07-27T22:59:13.422Z,18.75
2022-07-27T23:01:47.376Z,18.68
2022-07-27T23:04:16.644Z,18.64
2022-07-27T23:06:45.424Z,18.61
2022-07-27T23:09:13.316Z,18.60
2022-07-27T23:11:41.283Z,18.59
2022-07-27T23:14:08.972Z,18.58
2022-07-27T23:16:37.534Z,18.55
2022-07-27T23:19:07.804Z,18.56
2022-07-27T23:21:37.445Z,18.52
2022-07-27T23:24:05.483Z,18.52
2022-07-27T23:26:33.563Z,18.50
2022-07-27T23:29:01.655Z,18.45
2022-07-27T23:31:29.799Z,18.39
2022-07-27T23:33:57.528Z,18.31
2022-07-27T23:36:26.944Z,18.30
2022-07-27T23:38:54.665Z,18.24
2022-07-27T23:41:23.151Z,18.14
2022-07-27T23:43:50.809Z,18.09
2022-07-27T23:46:19.416Z,17.98
2022-07-27T23:48:47.187Z,17.95
2022-07-27T23:51:19.045Z,17.92
2022-07-27T23:53:48.492Z,17.89
2022-07-27T23:56:16.678Z,17.84
2022-07-27T23:58:44.888Z,17.83
